Time;durP1;ratioP1;P1;durP2;ratioP2;P2;SDS_P1;SDS_P2;PMS_P1;PMS_P2;Temp;Humidity;BMP_temperature;BMP_pressure;BME280_temperature;BME280_humidity;BME280_pressure;Samples;Min_cycle;Max_cycle;Signal;HPM_P1;HPM_P2
2022/01/12 00:02:21;;;;;;;21.73;16.40;;;1.00;99.90;;;;;;5053741;28;20194;-65
2022/01/12 00:04:47;;;;;;;24.93;15.93;;;1.00;99.90;;;;;;5054149;28;20175;-64
2022/01/12 00:07:13;;;;;;;26.23;18.30;;;1.00;99.90;;;;;;5033309;28;20626;-66
2022/01/12 00:09:38;;;;;;;17.80;15.93;;;1.00;99.90;;;;;;5041999;28;20282;-66
2022/01/12 00:12:04;;;;;;;23.70;17.17;;;1.00;99.90;;;;;;5053826;28;20242;-67
2022/01/12 00:14:30;;;;;;;22.73;16.97;;;1.00;99.90;;;;;;5046948;28;20180;-67
2022/01/12 00:16:59;;;;;;;21.90;17.20;;;1.00;99.90;;;;;;5033799;28;20195;-65
2022/01/12 00:19:26;;;;;;;21.33;16.43;;;1.00;99.90;;;;;;5038656;28;20252;-65
2022/01/12 00:21:55;;;;;;;18.67;16.70;;;0.90;99.90;;;;;;5053484;28;20601;-65
2022/01/12 00:24:21;;;;;;;21.47;16.90;;;0.90;99.90;;;;;;5047795;28;20196;-66
2022/01/12 00:35:00;;;;;;;22.03;17.13;;;0.70;99.90;;;;;;5044820;28;20210;-66
2022/01/12 00:37:26;;;;;;;20.57;16.83;;;0.60;99.90;;;;;;5032322;28;20637;-66
2022/01/12 00:39:57;;;;;;;21.93;15.57;;;0.60;99.90;;;;;;5035562;28;20203;-64
2022/01/12 00:42:25;;;;;;;20.87;17.50;;;0.50;99.90;;;;;;5033070;28;20262;-65
2022/01/12 00:44:52;;;;;;;18.33;16.37;;;0.50;99.90;;;;;;5050563;28;20178;-66
2022/01/12 00:47:18;;;;;;;21.00;17.10;;;0.40;99.90;;;;;;5053340;28;20163;-66
2022/01/12 00:49:44;;;;;;;22.10;16.80;;;0.40;99.90;;;;;;5036220;28;20195;-66
2022/01/12 00:52:10;;;;;;;21.87;16.77;;;0.30;99.90;;;;;;5032790;28;20199;-66
2022/01/12 00:54:35;;;;;;;22.73;17.10;;;0.30;99.90;;;;;;5047167;28;20186;-66
2022/01/12 00:57:02;;;;;;;21.30;17.17;;;0.30;99.90;;;;;;5038643;28;20653;-65
2022/01/12 00:59:27;;;;;;;23.67;17.30;;;0.20;99.90;;;;;;5032817;28;20215;-65
2022/01/12 01:01:54;;;;;;;24.73;17.47;;;0.20;99.90;;;;;;5044087;28;20189;-64
2022/01/12 01:04:19;;;;;;;21.80;17.77;;;0.20;99.90;;;;;;5036187;28;20581;-66
2022/01/12 01:06:45;;;;;;;23.77;18.20;;;0.20;99.90;;;;;;5033770;28;20183;-65
2022/01/12 01:09:11;;;;;;;22.60;18.20;;;0.20;99.90;;;;;;5032885;28;20188;-65
2022/01/12 01:11:36;;;;;;;18.17;16.47;;;0.10;99.90;;;;;;5040652;28;20175;-65
2022/01/12 01:14:13;;;;;;;19.83;16.47;;;0.10;99.90;;;;;;5052431;28;20573;-66
2022/01/12 01:27:21;;;;;;;18.07;16.20;;;0.10;99.90;;;;;;5032898;28;20178;-67
2022/01/12 01:29:48;;;;;;;22.97;16.17;;;0.00;99.90;;;;;;5032705;28;20195;-64
2022/01/12 01:32:13;;;;;;;23.77;17.57;;;0.00;99.90;;;;;;5042083;28;20508;-64
2022/01/12 01:34:45;;;;;;;22.40;17.67;;;0.00;99.90;;;;;;5052159;28;20182;-65
2022/01/12 01:37:11;;;;;;;19.93;16.33;;;0.00;99.90;;;;;;5032392;28;20198;-66
2022/01/12 01:39:36;;;;;;;19.07;16.90;;;0.10;99.90;;;;;;5040612;28;20190;-65
2022/01/12 01:42:08;;;;;;;22.60;17.03;;;0.10;99.90;;;;;;5035601;28;20184;-64
2022/01/12 01:55:40;;;;;;;22.67;16.87;;;0.30;99.90;;;;;;5031725;28;20236;-64
2022/01/12 01:58:06;;;;;;;20.83;17.27;;;0.20;99.90;;;;;;5041252;28;20206;-65
2022/01/12 02:00:34;;;;;;;20.63;16.57;;;0.30;99.90;;;;;;5051673;28;20655;-65
2022/01/12 02:03:01;;;;;;;21.50;16.97;;;0.40;99.90;;;;;;5049685;28;20613;-66
2022/01/12 02:05:26;;;;;;;20.77;15.17;;;0.40;99.90;;;;;;5051701;28;20246;-65
2022/01/12 02:07:52;;;;;;;22.80;17.07;;;0.50;99.90;;;;;;5039698;28;20642;-66
2022/01/12 02:10:18;;;;;;;22.90;16.53;;;0.50;99.90;;;;;;5031975;28;20175;-64
2022/01/12 02:12:45;;;;;;;19.93;16.67;;;0.60;99.90;;;;;;5040368;28;20210;-65
2022/01/12 02:15:17;;;;;;;16.20;14.57;;;0.60;99.90;;;;;;5051572;28;20249;-66
2022/01/12 02:17:59;;;;;;;19.27;15.30;;;0.70;99.90;;;;;;5042442;28;20242;-65
2022/01/12 02:37:17;;;;;;;15.80;14.07;;;1.20;99.90;;;;;;5032066;28;20557;-64
2022/01/12 02:39:56;;;;;;;20.50;14.87;;;1.20;99.90;;;;;;5031213;28;20197;-66
2022/01/12 02:42:23;;;;;;;16.50;14.90;;;1.10;99.90;;;;;;5044114;28;20430;-64
2022/01/12 02:53:40;;;;;;;18.47;15.50;;;0.80;99.90;;;;;;5008716;28;20184;-66
2022/01/12 02:56:10;;;;;;;18.87;15.00;;;0.80;99.90;;;;;;5009037;28;20386;-65
2022/01/12 02:58:36;;;;;;;21.53;14.80;;;0.80;99.90;;;;;;5022436;28;20231;-65
2022/01/12 03:03:50;;;;;;;21.23;15.80;;;0.80;99.90;;;;;;5034644;28;20206;-65
2022/01/12 03:06:22;;;;;;;18.80;15.57;;;0.80;99.90;;;;;;5048919;28;20547;-65
2022/01/12 03:08:49;;;;;;;21.97;17.47;;;0.80;99.90;;;;;;5053734;28;20279;-65
2022/01/12 03:11:17;;;;;;;18.73;16.13;;;0.80;99.90;;;;;;5040879;28;20259;-65
2022/01/12 03:13:43;;;;;;;20.23;15.63;;;0.80;99.90;;;;;;5034411;28;20179;-65
2022/01/12 03:16:14;;;;;;;17.30;15.50;;;0.70;99.90;;;;;;5047241;28;20179;-65
2022/01/12 03:18:45;;;;;;;26.40;15.87;;;0.70;99.90;;;;;;5054644;28;20190;-65
2022/01/12 03:21:12;;;;;;;20.80;15.73;;;0.70;99.90;;;;;;5042291;28;20706;-65
2022/01/12 03:23:38;;;;;;;20.83;15.83;;;0.60;99.90;;;;;;5034178;28;20571;-66
2022/01/12 03:26:05;;;;;;;24.87;16.57;;;0.60;99.90;;;;;;5035269;28;20183;-64
2022/01/12 03:28:32;;;;;;;22.30;15.57;;;0.60;99.90;;;;;;5035237;28;20188;-65
2022/01/12 03:31:06;;;;;;;22.33;16.23;;;0.60;99.90;;;;;;5054586;28;20472;-64
2022/01/12 03:33:49;;;;;;;22.87;16.07;;;0.50;99.90;;;;;;5052014;28;20184;-66
2022/01/12 03:38:59;;;;;;;21.70;16.10;;;0.60;99.90;;;;;;5036596;28;20638;-65
2022/01/12 03:41:27;;;;;;;19.77;15.37;;;0.50;99.90;;;;;;5054273;28;20273;-65
2022/01/12 03:43:54;;;;;;;18.43;15.30;;;0.60;99.90;;;;;;5051397;28;20626;-64
2022/01/12 03:46:24;;;;;;;21.43;16.43;;;0.60;99.90;;;;;;5034389;28;20172;-64
2022/01/12 03:48:50;;;;;;;21.87;15.63;;;0.70;99.90;;;;;;5046892;28;20206;-64
2022/01/12 03:51:16;;;;;;;18.80;16.43;;;0.70;99.90;;;;;;5040833;28;20179;-65
2022/01/12 03:53:42;;;;;;;21.87;15.83;;;0.60;99.90;;;;;;5041354;28;20186;-66
2022/01/12 03:56:08;;;;;;;20.20;14.87;;;0.70;99.90;;;;;;5054205;28;20186;-65
2022/01/12 04:01:01;;;;;;;18.97;16.20;;;0.80;99.90;;;;;;5072874;28;20689;-65
2022/01/12 04:03:28;;;;;;;19.20;15.40;;;0.80;99.90;;;;;;5073354;28;20194;-65
2022/01/12 04:08:53;;;;;;;18.43;15.50;;;0.90;99.90;;;;;;5051339;28;20507;-65
2022/01/12 04:11:18;;;;;;;21.33;15.40;;;1.00;99.90;;;;;;5053758;28;20171;-65
2022/01/12 04:13:47;;;;;;;19.07;15.70;;;1.00;99.90;;;;;;5064401;28;20254;-65
2022/01/12 04:16:13;;;;;;;23.20;16.40;;;1.00;99.90;;;;;;5071839;28;20635;-66
2022/01/12 04:18:40;;;;;;;21.90;16.47;;;1.10;99.90;;;;;;5053425;28;20687;-65
2022/01/12 04:21:08;;;;;;;21.67;15.50;;;1.10;99.90;;;;;;5053738;28;20231;-65
2022/01/12 04:23:35;;;;;;;19.27;16.33;;;1.20;99.90;;;;;;5053249;28;20286;-65
2022/01/12 04:26:10;;;;;;;17.87;15.37;;;1.20;99.90;;;;;;5053550;28;20178;-65
2022/01/12 04:28:45;;;;;;;23.13;15.57;;;1.20;99.90;;;;;;5053384;28;20204;-66
2022/01/12 04:31:12;;;;;;;20.03;15.33;;;1.20;99.90;;;;;;5053684;28;20235;-65
2022/01/12 04:33:39;;;;;;;18.33;14.77;;;1.30;99.90;;;;;;5073185;28;20255;-66
2022/01/12 04:36:07;;;;;;;19.87;15.40;;;1.30;99.90;;;;;;5073404;28;20186;-65
2022/01/12 04:38:34;;;;;;;20.17;16.40;;;1.30;99.90;;;;;;5057678;28;20198;-64
2022/01/12 04:41:06;;;;;;;16.77;14.97;;;1.30;99.90;;;;;;5073251;28;20697;-66
2022/01/12 04:43:33;;;;;;;19.03;14.83;;;1.30;99.90;;;;;;5054573;28;20268;-66
2022/01/12 04:48:49;;;;;;;18.73;14.53;;;1.40;99.90;;;;;;5073255;28;20280;-65
2022/01/12 04:51:15;;;;;;;17.33;14.30;;;1.40;99.90;;;;;;5069817;28;20170;-66
2022/01/12 04:53:41;;;;;;;23.27;16.50;;;1.40;99.90;;;;;;5061445;28;20628;-65
2022/01/12 04:56:07;;;;;;;25.13;15.90;;;1.40;99.90;;;;;;5060988;28;20170;-65
2022/01/12 04:58:32;;;;;;;22.00;15.60;;;1.40;99.90;;;;;;5072793;28;20193;-64
2022/01/12 05:01:05;;;;;;;24.27;16.40;;;1.40;99.90;;;;;;5066243;28;20663;-66
2022/01/12 05:13:55;;;;;;;17.73;14.53;;;1.40;99.90;;;;;;5052242;28;20177;-66
2022/01/12 05:16:22;;;;;;;23.60;14.63;;;1.50;99.90;;;;;;5052756;28;20193;-64
2022/01/12 05:18:49;;;;;;;19.20;14.43;;;1.50;99.90;;;;;;5051142;28;20202;-65
2022/01/12 05:21:18;;;;;;;17.53;14.73;;;1.50;99.90;;;;;;5070280;28;20181;-66
2022/01/12 05:23:43;;;;;;;20.97;15.57;;;1.40;99.90;;;;;;5069983;28;20780;-65
2022/01/12 05:26:09;;;;;;;18.30;14.87;;;1.50;99.90;;;;;;5055533;28;20182;-65
2022/01/12 05:28:38;;;;;;;23.13;15.40;;;1.50;99.90;;;;;;5052441;28;20288;-65
2022/01/12 05:31:05;;;;;;;21.73;14.90;;;1.60;99.90;;;;;;5067263;28;20174;-66
2022/01/12 05:33:30;;;;;;;18.80;15.53;;;1.60;99.90;;;;;;5071968;28;20225;-66
2022/01/12 05:35:58;;;;;;;15.73;14.03;;;1.70;99.90;;;;;;5058363;28;20273;-66
2022/01/12 05:38:25;;;;;;;21.70;14.40;;;1.70;99.90;;;;;;5052196;28;20692;-64
2022/01/12 05:40:55;;;;;;;20.27;14.63;;;1.80;99.90;;;;;;5062396;28;20181;-65
2022/01/12 05:43:25;;;;;;;17.63;14.03;;;1.80;99.90;;;;;;5067569;28;20216;-66
2022/01/12 05:45:52;;;;;;;21.67;14.80;;;1.90;99.90;;;;;;5051758;28;20171;-65
2022/01/12 05:50:47;;;;;;;17.83;14.00;;;1.90;99.90;;;;;;5071900;28;20646;-66
2022/01/12 05:53:12;;;;;;;20.03;14.20;;;1.90;99.90;;;;;;5060076;28;20182;-65
2022/01/12 05:55:38;;;;;;;15.47;14.03;;;1.90;99.90;;;;;;5087110;28;20173;-65
2022/01/12 05:58:04;;;;;;;15.40;13.53;;;1.90;99.90;;;;;;5091997;28;20177;-65
2022/01/12 06:00:29;;;;;;;17.90;13.40;;;1.90;99.90;;;;;;5063244;28;20198;-66
2022/01/12 06:02:55;;;;;;;18.17;14.37;;;1.90;99.90;;;;;;5051458;28;20596;-66
2022/01/12 06:05:22;;;;;;;16.40;13.93;;;2.00;99.90;;;;;;5063385;28;20720;-65
2022/01/12 06:07:49;;;;;;;16.00;14.40;;;2.00;99.90;;;;;;5070749;28;20254;-66
2022/01/12 06:10:16;;;;;;;16.50;14.73;;;2.00;99.90;;;;;;5061027;28;20195;-66
2022/01/12 06:12:42;;;;;;;15.97;14.00;;;2.00;99.90;;;;;;5051366;28;20163;-66
2022/01/12 06:15:09;;;;;;;17.80;14.83;;;1.90;99.90;;;;;;5060082;28;20238;-65
2022/01/12 06:17:35;;;;;;;17.67;14.33;;;1.90;99.90;;;;;;5070235;28;20178;-65
2022/01/12 06:20:02;;;;;;;18.53;15.70;;;1.80;99.90;;;;;;5064143;28;20194;-65
2022/01/12 06:22:28;;;;;;;15.97;13.93;;;1.70;99.90;;;;;;5050952;28;20167;-66
2022/01/12 06:24:56;;;;;;;16.53;14.63;;;1.60;99.90;;;;;;5056486;28;20174;-66
2022/01/12 06:27:23;;;;;;;16.17;14.10;;;1.60;99.90;;;;;;5070176;28;20257;-65
2022/01/12 06:30:04;;;;;;;15.17;13.20;;;1.50;99.90;;;;;;5054834;28;20679;-66
2022/01/12 06:32:31;;;;;;;14.53;13.13;;;1.40;99.90;;;;;;5051147;28;20189;-65
2022/01/12 06:34:56;;;;;;;14.80;13.17;;;1.40;99.90;;;;;;5069726;28;20170;-65
2022/01/12 06:37:22;;;;;;;16.63;14.70;;;1.30;99.90;;;;;;5075763;28;20241;-65
2022/01/12 06:39:48;;;;;;;18.03;14.80;;;1.30;99.90;;;;;;5060540;28;20199;-65
2022/01/12 06:42:13;;;;;;;19.20;15.47;;;1.30;99.90;;;;;;5055209;28;20512;-66
2022/01/12 06:44:39;;;;;;;18.97;13.93;;;1.30;99.90;;;;;;5067712;28;20698;-66
2022/01/12 06:47:05;;;;;;;20.03;13.80;;;1.30;99.90;;;;;;5075464;28;20166;-65
2022/01/12 06:49:31;;;;;;;17.23;14.90;;;1.20;99.90;;;;;;5064402;28;20205;-65
2022/01/12 06:52:00;;;;;;;15.57;14.17;;;1.10;99.90;;;;;;5055838;28;20249;-66
2022/01/12 06:54:26;;;;;;;16.40;14.80;;;1.00;99.90;;;;;;5074898;28;20174;-66
2022/01/12 06:56:51;;;;;;;19.80;14.77;;;1.00;99.90;;;;;;5058796;28;20182;-66
2022/01/12 06:59:17;;;;;;;21.60;14.83;;;0.90;99.90;;;;;;5074208;28;20216;-66
2022/01/12 07:01:44;;;;;;;19.77;15.27;;;0.90;99.90;;;;;;5061245;28;20529;-65
2022/01/12 07:04:10;;;;;;;17.33;14.53;;;0.80;99.90;;;;;;5054446;28;20285;-65
2022/01/12 07:06:35;;;;;;;23.53;16.03;;;0.80;99.90;;;;;;5060459;28;20656;-65
2022/01/12 07:09:03;;;;;;;17.73;15.50;;;0.80;99.90;;;;;;5073502;28;20191;-66
2022/01/12 07:11:28;;;;;;;17.13;14.87;;;0.90;99.90;;;;;;5056965;28;20542;-64
2022/01/12 07:13:54;;;;;;;20.67;16.57;;;1.00;99.90;;;;;;5053911;28;20273;-65
2022/01/12 07:16:19;;;;;;;17.53;15.33;;;1.00;99.90;;;;;;5054737;28;20167;-66
2022/01/12 07:18:45;;;;;;;19.67;16.10;;;1.10;99.90;;;;;;5059821;28;20267;-65
2022/01/12 07:21:11;;;;;;;18.10;16.20;;;1.20;99.90;;;;;;5074644;28;20170;-65
2022/01/12 07:23:36;;;;;;;21.03;17.73;;;1.20;99.90;;;;;;5070189;28;20199;-66
2022/01/12 07:26:02;;;;;;;31.50;21.03;;;1.30;99.90;;;;;;5054437;28;20167;-66
2022/01/12 07:28:28;;;;;;;19.50;16.20;;;1.30;99.90;;;;;;5056008;28;20191;-65
2022/01/12 07:30:53;;;;;;;23.10;14.83;;;1.40;99.90;;;;;;5068438;28;20182;-66
2022/01/12 07:33:20;;;;;;;17.50;15.53;;;1.40;99.90;;;;;;5052866;28;20175;-65
2022/01/12 07:35:46;;;;;;;18.10;16.13;;;1.50;99.90;;;;;;5054294;28;20175;-66
2022/01/12 07:38:12;;;;;;;16.43;14.53;;;1.60;99.90;;;;;;5053163;28;20182;-65
2022/01/12 07:40:37;;;;;;;19.00;15.77;;;1.70;99.90;;;;;;5054177;28;20249;-66
2022/01/12 07:43:04;;;;;;;18.67;14.30;;;1.90;99.90;;;;;;5055057;28;20214;-65
2022/01/12 07:45:30;;;;;;;18.80;15.03;;;1.90;99.90;;;;;;5054019;28;20166;-66
2022/01/12 07:47:56;;;;;;;20.20;15.77;;;2.00;99.90;;;;;;5060247;28;20552;-65
2022/01/12 07:50:22;;;;;;;19.23;15.00;;;2.10;99.90;;;;;;5074034;28;20182;-64
2022/01/12 07:52:48;;;;;;;20.20;15.90;;;2.10;99.90;;;;;;5056818;28;20190;-66
2022/01/12 07:55:14;;;;;;;17.27;15.50;;;2.20;99.90;;;;;;5055018;28;20167;-66
2022/01/12 07:57:42;;;;;;;19.40;17.00;;;2.20;99.90;;;;;;5059940;28;20224;-65
2022/01/12 08:00:08;;;;;;;19.00;16.90;;;2.20;99.90;;;;;;5072921;28;20210;-65
2022/01/12 08:02:34;;;;;;;22.00;18.30;;;2.30;99.90;;;;;;5053440;28;20206;-66
2022/01/12 08:05:00;;;;;;;20.57;18.10;;;2.40;99.90;;;;;;5053905;28;20195;-65
2022/01/12 08:07:25;;;;;;;19.90;17.30;;;2.50;99.90;;;;;;5072500;28;20261;-66
2022/01/12 08:09:51;;;;;;;19.43;15.70;;;2.60;99.90;;;;;;5073441;28;20734;-64
2022/01/12 08:12:16;;;;;;;18.87;14.47;;;2.60;99.90;;;;;;5056345;28;20666;-65
2022/01/12 08:14:42;;;;;;;21.77;14.47;;;2.60;99.90;;;;;;5053482;28;20206;-65
2022/01/12 08:17:08;;;;;;;22.73;14.57;;;2.60;99.90;;;;;;5068530;28;20189;-66
2022/01/12 08:19:36;;;;;;;19.73;14.77;;;2.60;99.90;;;;;;5073587;28;20213;-66
2022/01/12 08:22:02;;;;;;;19.03;15.20;;;2.60;99.90;;;;;;5059279;28;20174;-66
2022/01/12 08:24:28;;;;;;;18.70;16.67;;;2.70;99.90;;;;;;5056828;28;20576;-66
2022/01/12 08:26:54;;;;;;;19.90;18.10;;;2.70;99.90;;;;;;5073473;28;20170;-65
2022/01/12 08:29:19;;;;;;;18.33;16.43;;;2.70;99.90;;;;;;5071243;28;20186;-66
2022/01/12 08:31:45;;;;;;;19.90;16.80;;;2.60;99.90;;;;;;5053163;28;20167;-65
2022/01/12 08:34:12;;;;;;;16.50;14.73;;;2.60;99.90;;;;;;5052857;28;20178;-65
2022/01/12 08:36:42;;;;;;;18.33;16.43;;;2.60;99.90;;;;;;5053149;28;20224;-65
2022/01/12 08:39:08;;;;;;;18.93;17.03;;;2.60;99.90;;;;;;5053466;28;20552;-65
2022/01/12 08:41:37;;;;;;;18.23;16.00;;;2.60;99.90;;;;;;5071782;28;20257;-65
2022/01/12 08:44:05;;;;;;;19.20;16.00;;;2.60;99.90;;;;;;5072889;28;20280;-66
2022/01/12 08:46:30;;;;;;;18.83;16.93;;;2.70;99.90;;;;;;5055220;28;20179;-65
2022/01/12 08:48:56;;;;;;;21.53;16.77;;;2.60;99.90;;;;;;5052917;28;20274;-66
2022/01/12 08:51:21;;;;;;;20.03;15.90;;;2.70;99.90;;;;;;5068678;28;20815;-65
2022/01/12 08:53:47;;;;;;;18.77;15.20;;;2.70;99.90;;;;;;5066579;28;20186;-66
2022/01/12 08:56:13;;;;;;;16.60;14.90;;;2.80;99.90;;;;;;5057839;28;20293;-64
2022/01/12 08:58:40;;;;;;;18.10;16.20;;;2.80;99.90;;;;;;5056064;28;20290;-66
2022/01/12 09:01:06;;;;;;;16.97;15.40;;;2.90;99.90;;;;;;5072984;28;20655;-65
2022/01/12 09:03:31;;;;;;;17.80;16.10;;;3.00;99.90;;;;;;5069798;28;20242;-65
2022/01/12 09:05:57;;;;;;;14.93;13.37;;;3.10;99.90;;;;;;5051307;28;20181;-66
2022/01/12 09:08:23;;;;;;;17.50;15.27;;;3.10;99.90;;;;;;5051860;28;20199;-66
2022/01/12 09:10:49;;;;;;;18.60;14.30;;;3.20;99.90;;;;;;5053158;28;20193;-67
2022/01/12 09:13:15;;;;;;;19.07;15.40;;;3.20;99.90;;;;;;5052431;28;20175;-65
2022/01/12 09:15:41;;;;;;;18.33;14.20;;;3.20;99.90;;;;;;5071141;28;20192;-65
2022/01/12 09:18:06;;;;;;;17.40;13.40;;;3.30;99.90;;;;;;5072484;28;20167;-65
2022/01/12 09:20:32;;;;;;;16.17;14.30;;;3.30;99.90;;;;;;5070790;28;20312;-66
2022/01/12 09:22:58;;;;;;;15.80;14.30;;;3.40;99.90;;;;;;5072275;28;20229;-66
2022/01/12 09:25:24;;;;;;;17.00;15.27;;;3.40;99.90;;;;;;5057040;28;20206;-66
2022/01/12 09:27:50;;;;;;;15.23;13.60;;;3.50;99.90;;;;;;5052231;28;20537;-66
2022/01/12 09:30:18;;;;;;;15.57;13.93;;;3.60;99.90;;;;;;5065021;28;20205;-66
2022/01/12 09:32:45;;;;;;;16.00;14.47;;;3.60;99.90;;;;;;5071914;28;20215;-66
2022/01/12 09:35:11;;;;;;;14.93;13.37;;;3.60;99.90;;;;;;5058755;28;20252;-65
2022/01/12 09:37:37;;;;;;;19.47;17.03;;;3.60;99.90;;;;;;5052299;28;20262;-66
2022/01/12 09:40:03;;;;;;;20.33;15.63;;;3.50;99.90;;;;;;5061599;28;20240;-65
2022/01/12 09:42:29;;;;;;;22.10;17.07;;;3.60;99.90;;;;;;5071780;28;20631;-66
2022/01/12 09:44:56;;;;;;;17.73;15.77;;;3.60;99.90;;;;;;5063375;28;20276;-65
2022/01/12 09:47:22;;;;;;;18.10;15.10;;;3.70;99.90;;;;;;5051216;28;20402;-63
2022/01/12 09:49:48;;;;;;;15.73;14.17;;;3.70;99.90;;;;;;5070665;28;20252;-66
2022/01/12 09:52:14;;;;;;;14.97;13.43;;;3.70;99.90;;;;;;5058063;28;20186;-66
2022/01/12 09:54:40;;;;;;;14.93;13.57;;;3.80;99.90;;;;;;5051777;28;20188;-64
2022/01/12 09:57:06;;;;;;;15.77;12.93;;;3.80;99.90;;;;;;5063084;28;20632;-66
2022/01/12 10:02:00;;;;;;;18.77;14.73;;;4.00;99.90;;;;;;5029338;28;20222;-66
2022/01/12 10:04:31;;;;;;;14.70;13.20;;;4.10;99.90;;;;;;5029652;28;20203;-65
2022/01/12 10:07:01;;;;;;;16.17;14.00;;;4.20;99.90;;;;;;5031595;28;20171;-66
2022/01/12 10:10:01;;;;;;;15.20;13.70;;;4.30;99.90;;;;;;5025084;28;20192;-66
2022/01/12 10:12:27;;;;;;;20.73;16.87;;;4.40;99.90;;;;;;5004562;28;20192;-66
2022/01/12 10:15:00;;;;;;;17.73;14.63;;;4.50;99.90;;;;;;5004679;28;20748;-65
2022/01/12 10:17:41;;;;;;;16.17;12.37;;;4.50;99.90;;;;;;5010571;28;20183;-65
2022/01/12 10:20:18;;;;;;;18.03;12.80;;;4.50;99.90;;;;;;4996469;28;20208;-66
2022/01/12 10:23:02;;;;;;;25.10;14.97;;;4.50;99.90;;;;;;4991646;28;20180;-66
2022/01/12 10:25:29;;;;;;;13.20;11.90;;;4.50;99.90;;;;;;4991114;28;20188;-66
2022/01/12 10:27:55;;;;;;;17.30;13.50;;;4.50;99.90;;;;;;4991871;28;20196;-66
2022/01/12 10:30:23;;;;;;;14.23;12.80;;;4.50;99.90;;;;;;5007140;28;20202;-66
2022/01/12 10:33:04;;;;;;;16.17;13.63;;;4.40;99.90;;;;;;5011132;28;20188;-66
2022/01/12 10:35:31;;;;;;;15.70;13.90;;;4.30;99.90;;;;;;4996536;28;20579;-67
2022/01/12 10:38:23;;;;;;;21.60;15.70;;;4.20;99.90;;;;;;5003071;28;20657;-66
2022/01/12 10:40:58;;;;;;;17.43;14.27;;;4.20;99.90;;;;;;5009360;28;20700;-66
2022/01/12 10:43:31;;;;;;;19.93;14.27;;;4.20;99.90;;;;;;5011279;28;20653;-66
2022/01/12 10:45:58;;;;;;;22.30;14.57;;;4.20;99.90;;;;;;5011464;28;20168;-65
2022/01/12 10:48:25;;;;;;;20.10;15.40;;;4.00;99.90;;;;;;5011889;28;20172;-66
2022/01/12 10:50:57;;;;;;;21.13;14.33;;;3.80;99.90;;;;;;5010437;28;20610;-64
2022/01/12 10:53:33;;;;;;;26.13;14.43;;;3.80;99.90;;;;;;5011387;28;20596;-65
2022/01/12 10:56:04;;;;;;;20.40;15.63;;;3.70;99.90;;;;;;5011584;28;20263;-64
2022/01/12 10:58:30;;;;;;;19.13;14.20;;;3.70;99.90;;;;;;5010117;28;20172;-65
2022/01/12 11:00:57;;;;;;;26.20;15.37;;;3.70;99.90;;;;;;5011273;28;20215;-65
2022/01/12 11:03:23;;;;;;;24.33;17.07;;;3.80;99.90;;;;;;5010980;28;20290;-65
2022/01/12 11:05:50;;;;;;;26.53;15.47;;;3.80;99.90;;;;;;5009910;28;20223;-67
2022/01/12 11:08:18;;;;;;;31.20;18.27;;;3.90;99.90;;;;;;5011077;28;20259;-64
2022/01/12 11:10:45;;;;;;;30.80;16.93;;;3.90;99.90;;;;;;5010226;28;20287;-65
2022/01/12 11:13:12;;;;;;;31.50;17.23;;;3.90;99.90;;;;;;5009703;28;20641;-65
2022/01/12 11:15:38;;;;;;;28.30;17.50;;;3.80;99.90;;;;;;5011115;28;20182;-66
2022/01/12 11:18:04;;;;;;;26.17;16.37;;;3.70;99.90;;;;;;5011057;28;20176;-65
2022/01/12 11:20:30;;;;;;;29.27;18.77;;;3.70;99.90;;;;;;5010936;28;20199;-65
2022/01/12 11:23:31;;;;;;;28.83;17.37;;;3.70;99.90;;;;;;4995087;28;20231;-64
2022/01/12 11:25:57;;;;;;;26.17;17.07;;;3.70;99.90;;;;;;4995091;28;20592;-64
2022/01/12 11:28:24;;;;;;;31.63;16.70;;;3.70;99.90;;;;;;4995328;28;20204;-65
2022/01/12 11:30:50;;;;;;;26.53;18.30;;;3.70;99.90;;;;;;4993630;28;20196;-66
2022/01/12 11:33:34;;;;;;;33.33;18.03;;;3.70;99.90;;;;;;5010407;28;20237;-65
2022/01/12 11:36:11;;;;;;;29.93;17.87;;;3.70;99.90;;;;;;5005887;28;20187;-64
2022/01/12 11:38:37;;;;;;;36.87;18.60;;;3.70;99.90;;;;;;5014540;28;20642;-65
2022/01/12 11:41:13;;;;;;;27.83;16.97;;;3.80;99.90;;;;;;4999623;28;20267;-65
2022/01/12 11:43:47;;;;;;;24.23;15.97;;;3.80;99.90;;;;;;4994410;28;20207;-65
2022/01/12 11:46:16;;;;;;;30.83;17.50;;;3.90;99.90;;;;;;5010126;28;20207;-65
2022/01/12 11:48:46;;;;;;;34.67;17.57;;;3.90;99.90;;;;;;5013182;28;20160;-66
2022/01/12 11:51:15;;;;;;;34.87;17.93;;;3.90;99.90;;;;;;5009206;28;20196;-67
2022/01/12 11:53:45;;;;;;;36.07;17.90;;;4.00;99.90;;;;;;5012957;28;20689;-66
2022/01/12 11:56:13;;;;;;;29.83;17.80;;;4.10;99.90;;;;;;4996178;28;20682;-65
2022/01/12 11:59:08;;;;;;;33.37;17.27;;;4.10;99.90;;;;;;4994497;28;20173;-65
2022/01/12 12:01:51;;;;;;;36.20;19.70;;;4.10;99.90;;;;;;4992831;28;20200;-66
2022/01/12 12:04:26;;;;;;;40.30;19.70;;;4.10;99.90;;;;;;4994385;28;20205;-65
2022/01/12 12:07:09;;;;;;;36.90;19.10;;;4.00;99.90;;;;;;4994267;28;20516;-65
2022/01/12 12:09:44;;;;;;;33.43;18.70;;;4.00;99.90;;;;;;4994460;28;20224;-66
2022/01/12 12:12:18;;;;;;;41.77;18.43;;;4.00;99.90;;;;;;4992844;28;20180;-66
2022/01/12 12:14:55;;;;;;;41.07;21.33;;;4.00;99.90;;;;;;4994141;28;20173;-65
2022/01/12 12:17:22;;;;;;;45.17;22.33;;;4.00;99.90;;;;;;4994972;28;20684;-65
2022/01/12 12:19:50;;;;;;;37.73;21.90;;;4.00;99.90;;;;;;5013253;28;20276;-65
2022/01/12 12:22:18;;;;;;;38.80;20.87;;;4.10;99.90;;;;;;5012621;28;20264;-65
2022/01/12 12:24:47;;;;;;;40.70;21.43;;;4.20;99.90;;;;;;4993471;28;20208;-65
2022/01/12 12:27:18;;;;;;;42.70;21.30;;;4.20;99.90;;;;;;4994134;28;20180;-65
2022/01/12 12:29:45;;;;;;;40.57;21.33;;;4.20;99.90;;;;;;5013397;28;20272;-65
2022/01/12 12:32:13;;;;;;;40.20;21.33;;;4.30;99.90;;;;;;5010804;28;20536;-65
2022/01/12 12:34:40;;;;;;;46.33;22.83;;;4.30;99.90;;;;;;5012893;28;20180;-66
2022/01/12 12:37:09;;;;;;;44.53;22.07;;;4.40;99.90;;;;;;5013534;28;20172;-65
2022/01/12 12:39:38;;;;;;;37.67;20.27;;;4.50;99.90;;;;;;4994499;28;20303;-65
2022/01/12 12:42:12;;;;;;;47.10;22.70;;;4.50;99.90;;;;;;4993650;28;20253;-65
2022/01/12 12:44:38;;;;;;;42.90;22.87;;;4.50;99.90;;;;;;5010437;28;20767;-65
2022/01/12 12:47:08;;;;;;;62.97;24.93;;;4.50;99.90;;;;;;5012066;28;20259;-66
2022/01/12 12:49:56;;;;;;;46.03;24.40;;;4.50;99.90;;;;;;4994700;28;20813;-65
2022/01/12 12:52:22;;;;;;;45.37;23.17;;;4.40;99.90;;;;;;5001839;28;20190;-65
2022/01/12 12:54:48;;;;;;;45.63;22.70;;;4.50;99.90;;;;;;5013035;28;20262;-65
2022/01/12 12:57:20;;;;;;;48.80;23.83;;;4.50;99.90;;;;;;5005823;28;20665;-64
2022/01/12 12:59:50;;;;;;;46.60;23.87;;;4.60;99.90;;;;;;4991893;28;20200;-65
2022/01/12 13:02:17;;;;;;;52.03;24.67;;;4.60;99.90;;;;;;4998480;28;20554;-65
2022/01/12 13:04:43;;;;;;;61.43;23.87;;;4.60;99.90;;;;;;5012643;28;20292;-65
2022/01/12 13:07:17;;;;;;;47.27;22.50;;;4.70;99.90;;;;;;4996039;28;20255;-64
2022/01/12 13:09:47;;;;;;;47.67;24.27;;;4.70;99.90;;;;;;4992981;28;20195;-64
2022/01/12 13:12:13;;;;;;;54.00;24.67;;;4.70;99.90;;;;;;5009468;28;20168;-65
2022/01/12 13:14:46;;;;;;;50.13;25.13;;;4.60;99.90;;;;;;5012549;28;20169;-66
2022/01/12 13:17:14;;;;;;;57.30;24.90;;;4.50;99.90;;;;;;4996354;28;20180;-66
2022/01/12 13:22:35;;;;;;;46.83;25.17;;;4.50;99.90;;;;;;5012643;28;20176;-68
2022/01/12 13:25:04;;;;;;;48.37;24.77;;;4.60;99.90;;;;;;5003896;28;20204;-66
2022/01/12 13:27:32;;;;;;;45.83;23.97;;;4.70;99.90;;;;;;5003628;28;20513;-66
2022/01/12 13:29:58;;;;;;;61.57;26.20;;;4.60;99.90;;;;;;5004606;28;20201;-66
2022/01/12 13:32:24;;;;;;;56.00;25.07;;;4.60;99.90;;;;;;4992483;28;20185;-66
2022/01/12 13:34:57;;;;;;;53.63;23.77;;;4.60;99.90;;;;;;5009873;28;20211;-67
2022/01/12 13:37:23;;;;;;;60.53;29.20;;;4.60;99.90;;;;;;5012467;28;20672;-66
2022/01/12 13:40:14;;;;;;;57.93;26.73;;;4.60;99.90;;;;;;4995358;28;20201;-67
2022/01/12 13:42:54;;;;;;;59.40;26.27;;;4.50;99.90;;;;;;4992042;28;20219;-66
2022/01/12 13:45:25;;;;;;;56.07;26.33;;;4.50;99.90;;;;;;4992813;28;20216;-66
2022/01/12 13:47:59;;;;;;;58.63;27.93;;;4.50;99.90;;;;;;5003593;28;20172;-66
2022/01/12 13:50:36;;;;;;;48.97;24.43;;;4.50;99.90;;;;;;5001369;28;20287;-66
2022/01/12 13:53:06;;;;;;;58.73;27.53;;;4.50;99.90;;;;;;4995984;28;20616;-66
2022/01/12 13:55:33;;;;;;;50.50;24.60;;;4.50;99.90;;;;;;5012295;28;20164;-65
2022/01/12 13:58:06;;;;;;;63.67;26.37;;;4.60;99.90;;;;;;5009358;28;20634;-66
2022/01/12 14:00:33;;;;;;;54.67;25.67;;;4.60;99.90;;;;;;4992170;28;20304;-66
2022/01/12 14:02:59;;;;;;;59.53;25.67;;;4.60;99.90;;;;;;4992119;28;20169;-66
2022/01/12 14:05:38;;;;;;;55.57;25.83;;;4.60;99.90;;;;;;4992742;28;20176;-66
2022/01/12 14:08:11;;;;;;;57.20;24.33;;;4.70;99.90;;;;;;5012240;28;20180;-64
2022/01/12 14:10:37;;;;;;;57.40;25.77;;;4.70;99.90;;;;;;5009748;28;20188;-66